Time;durP1;ratioP1;P1;durP2;ratioP2;P2;SDS_P1;SDS_P2;PMS_P1;PMS_P2;Temp;Humidity;BMP_temperature;BMP_pressure;BME280_temperature;BME280_humidity;BME280_pressure;Samples;Min_cycle;Max_cycle;Signal;HPM_P1;HPM_P2
2022/12/03 00:00:55;;;;;;;44.60;26.83;;;3.00;99.90;;;;;;4999458;28;89739;-33
2022/12/03 00:03:21;;;;;;;48.20;25.80;;;2.90;99.90;;;;;;4999663;28;90590;-32
2022/12/03 00:05:46;;;;;;;43.45;25.30;;;2.90;99.90;;;;;;4999032;28;89732;-33
2022/12/03 00:08:12;;;;;;;41.30;27.42;;;2.90;99.90;;;;;;4999496;28;87597;-32
2022/12/03 00:10:37;;;;;;;36.65;26.17;;;3.00;99.90;;;;;;4999535;28;90220;-32
2022/12/03 00:13:03;;;;;;;40.63;27.90;;;2.90;99.90;;;;;;4999551;28;90274;-31
2022/12/03 00:15:28;;;;;;;38.83;25.05;;;2.90;99.90;;;;;;4999177;28;89844;-33
2022/12/03 00:17:54;;;;;;;40.78;27.52;;;2.90;99.90;;;;;;4999929;28;88470;-35
2022/12/03 00:20:22;;;;;;;38.83;26.15;;;2.90;99.90;;;;;;4998483;28;88195;-33
2022/12/03 00:22:48;;;;;;;38.75;26.15;;;3.00;99.90;;;;;;4998699;28;90191;-32
2022/12/03 00:25:14;;;;;;;39.70;23.85;;;3.00;99.90;;;;;;4999828;28;89350;-34
2022/12/03 00:27:40;;;;;;;38.50;25.90;;;3.00;99.90;;;;;;4998859;28;89383;-33
2022/12/03 00:30:07;;;;;;;40.95;26.33;;;3.10;99.90;;;;;;4999307;28;88869;-34
2022/12/03 00:32:33;;;;;;;42.53;26.73;;;3.00;99.90;;;;;;4999006;28;90079;-33
2022/12/03 00:35:01;;;;;;;36.38;24.45;;;2.90;99.90;;;;;;4999019;28;90225;-30
2022/12/03 00:37:27;;;;;;;42.85;27.30;;;3.00;99.90;;;;;;4999253;28;88204;-32
2022/12/03 00:39:53;;;;;;;39.95;24.20;;;3.10;99.90;;;;;;4999962;28;90492;-31
2022/12/03 00:42:18;;;;;;;40.13;25.20;;;3.00;99.90;;;;;;4997977;28;89229;-32
2022/12/03 00:44:44;;;;;;;47.13;29.75;;;3.00;99.90;;;;;;4981069;28;90124;-33
2022/12/03 00:47:09;;;;;;;41.30;28.17;;;3.00;99.90;;;;;;4998976;28;88497;-32
2022/12/03 00:49:35;;;;;;;40.13;26.25;;;3.00;99.90;;;;;;4999431;28;90024;-33
2022/12/03 00:52:00;;;;;;;37.30;25.90;;;3.00;99.90;;;;;;4999339;28;90365;-32
2022/12/03 00:54:26;;;;;;;41.63;25.80;;;3.10;99.90;;;;;;4998087;28;89423;-33
2022/12/03 00:56:52;;;;;;;44.35;24.95;;;3.10;99.90;;;;;;4999545;28;88280;-33
2022/12/03 00:59:17;;;;;;;38.92;23.17;;;3.20;99.90;;;;;;4998711;28;87523;-32
2022/12/03 01:01:43;;;;;;;34.47;25.25;;;3.20;99.90;;;;;;4999142;28;90240;-31
2022/12/03 01:04:08;;;;;;;36.05;23.10;;;3.30;99.90;;;;;;4998892;28;90141;-30
2022/12/03 01:06:34;;;;;;;35.85;25.73;;;3.20;99.90;;;;;;4999144;28;88286;-31
2022/12/03 01:09:00;;;;;;;39.75;25.67;;;3.30;99.90;;;;;;4999544;28;89149;-32
2022/12/03 01:11:37;;;;;;;40.22;27.88;;;3.30;99.90;;;;;;4998886;28;90285;-32
2022/12/03 01:14:05;;;;;;;38.30;23.87;;;3.40;99.90;;;;;;5001779;28;89950;-36
2022/12/03 01:16:30;;;;;;;28.20;22.42;;;3.40;99.90;;;;;;5000127;28;89686;-32
2022/12/03 01:18:56;;;;;;;38.47;23.90;;;3.30;99.90;;;;;;5002022;28;89312;-33
2022/12/03 01:21:21;;;;;;;31.67;22.15;;;3.30;99.90;;;;;;5001311;28;90205;-35
2022/12/03 01:23:47;;;;;;;36.85;24.83;;;3.50;99.90;;;;;;5001065;28;89869;-34
2022/12/03 01:26:13;;;;;;;33.00;25.63;;;3.40;99.90;;;;;;5001691;28;90481;-35
2022/12/03 01:28:40;;;;;;;32.05;21.48;;;3.40;99.90;;;;;;5001961;28;88591;-33
2022/12/03 01:33:50;;;;;;;34.47;23.48;;;3.40;99.90;;;;;;5001262;28;89561;-34
2022/12/03 01:36:16;;;;;;;30.38;22.77;;;3.50;99.90;;;;;;5001627;28;88027;-32
2022/12/03 01:38:42;;;;;;;30.85;20.33;;;3.50;99.90;;;;;;5001209;28;87524;-31
2022/12/03 01:41:07;;;;;;;27.08;20.67;;;3.50;99.90;;;;;;5001732;28;90175;-31
2022/12/03 01:43:33;;;;;;;28.67;21.63;;;3.50;99.90;;;;;;5001088;28;89614;-33
2022/12/03 01:45:59;;;;;;;27.63;20.70;;;3.50;99.90;;;;;;5001632;28;88324;-34
2022/12/03 01:48:24;;;;;;;36.45;25.50;;;3.60;99.90;;;;;;5001486;28;90184;-34
2022/12/03 01:50:50;;;;;;;39.35;24.02;;;3.60;99.90;;;;;;5000959;28;90362;-32
2022/12/03 01:53:17;;;;;;;36.00;23.38;;;3.40;99.90;;;;;;5001893;28;89959;-31
2022/12/03 01:55:44;;;;;;;36.90;25.27;;;3.50;99.90;;;;;;5001056;28;89446;-33
2022/12/03 01:58:12;;;;;;;37.30;23.52;;;3.50;99.90;;;;;;5001020;28;89452;-31
2022/12/03 02:00:38;;;;;;;32.78;20.17;;;3.50;99.90;;;;;;5001450;28;90045;-33
2022/12/03 02:03:14;;;;;;;24.05;18.63;;;3.50;99.90;;;;;;5000951;28;88755;-33
2022/12/03 02:05:39;;;;;;;26.40;18.65;;;3.50;99.90;;;;;;5001373;28;87719;-32
2022/12/03 02:08:28;;;;;;;32.53;22.05;;;3.50;99.90;;;;;;5002091;28;88405;-32
2022/12/03 02:10:54;;;;;;;37.60;23.60;;;3.50;99.90;;;;;;5001275;28;90100;-33
2022/12/03 02:13:20;;;;;;;35.85;23.55;;;3.50;99.90;;;;;;5000244;28;89629;-31
2022/12/03 02:15:45;;;;;;;37.15;24.25;;;3.50;99.90;;;;;;5000728;28;89788;-32
2022/12/03 02:18:11;;;;;;;37.08;24.08;;;3.50;99.90;;;;;;5001642;28;87616;-32
2022/12/03 02:20:45;;;;;;;40.97;26.20;;;3.40;99.90;;;;;;5000791;28;90175;-32
2022/12/03 02:23:19;;;;;;;35.10;22.77;;;3.40;99.90;;;;;;5000750;28;89717;-32
2022/12/03 02:25:45;;;;;;;40.30;26.65;;;3.40;99.90;;;;;;5000711;28;89070;-32
2022/12/03 02:28:11;;;;;;;32.88;25.08;;;3.40;99.90;;;;;;5001341;28;88421;-35
2022/12/03 02:30:36;;;;;;;41.08;24.30;;;3.40;99.90;;;;;;5000667;28;90286;-34
2022/12/03 02:33:03;;;;;;;38.03;23.50;;;3.40;99.90;;;;;;5001162;28;89227;-31
2022/12/03 02:35:32;;;;;;;33.53;24.83;;;3.40;99.90;;;;;;5000568;28;89957;-31
2022/12/03 02:38:14;;;;;;;35.53;26.27;;;3.50;99.90;;;;;;5001037;28;87629;-32
2022/12/03 02:40:42;;;;;;;35.83;26.30;;;3.40;99.90;;;;;;5000997;28;90017;-33
2022/12/03 02:43:09;;;;;;;33.30;24.27;;;3.40;99.90;;;;;;5000686;28;89736;-31
2022/12/03 02:45:45;;;;;;;37.13;25.83;;;3.40;99.90;;;;;;5000068;28;88659;-34
2022/12/03 02:48:13;;;;;;;36.95;23.63;;;3.30;99.90;;;;;;5000574;28;88541;-34
2022/12/03 02:50:40;;;;;;;;;;;3.20;99.90;;;;;;5001038;28;90125;-32
2022/12/03 02:53:11;;;;;;;34.88;22.83;;;3.30;99.90;;;;;;5003082;28;89905;-32
2022/12/03 02:55:37;;;;;;;30.50;22.08;;;3.30;99.90;;;;;;5000610;28;88803;-34
2022/12/03 02:58:04;;;;;;;36.15;23.52;;;3.20;99.90;;;;;;5000016;28;87713;-34
2022/12/03 03:00:29;;;;;;;35.42;25.17;;;3.20;99.90;;;;;;5000396;28;90397;-32
2022/12/03 03:02:55;;;;;;;39.65;25.17;;;3.10;99.90;;;;;;5000335;28;88714;-34
2022/12/03 03:05:22;;;;;;;43.88;26.80;;;3.10;99.90;;;;;;5000207;28;89723;-32
2022/12/03 03:07:49;;;;;;;37.20;26.48;;;3.00;99.90;;;;;;5000344;28;87910;-35
2022/12/03 03:10:19;;;;;;;35.28;26.17;;;3.00;99.90;;;;;;5000807;28;90238;-34
2022/12/03 03:12:45;;;;;;;31.10;22.95;;;3.00;99.90;;;;;;5000167;28;90589;-31
2022/12/03 03:15:12;;;;;;;35.47;23.02;;;3.00;99.90;;;;;;4999642;28;89573;-32
2022/12/03 03:17:38;;;;;;;37.67;24.33;;;2.90;99.90;;;;;;4999674;28;89241;-34
2022/12/03 03:20:05;;;;;;;32.83;23.98;;;3.00;99.90;;;;;;5000050;28;90218;-32
2022/12/03 03:22:33;;;;;;;33.37;18.07;;;3.00;99.90;;;;;;4999740;28;90660;-32
2022/12/03 03:24:59;;;;;;;31.83;22.98;;;3.00;99.90;;;;;;5000086;28;87864;-31
2022/12/03 03:27:25;;;;;;;33.25;23.52;;;3.00;99.90;;;;;;4999844;28;88514;-31
2022/12/03 03:29:50;;;;;;;33.03;23.90;;;3.00;99.90;;;;;;4999952;28;90324;-33
2022/12/03 03:32:16;;;;;;;37.30;23.55;;;3.00;99.90;;;;;;5000345;28;89712;-34
2022/12/03 03:34:42;;;;;;;35.38;23.08;;;3.10;99.90;;;;;;4999391;28;89536;-33
2022/12/03 03:37:07;;;;;;;42.75;25.23;;;3.00;99.90;;;;;;4999489;28;87546;-32
2022/12/03 03:39:34;;;;;;;35.53;24.23;;;3.00;99.90;;;;;;5000735;28;88867;-32
2022/12/03 03:41:59;;;;;;;38.53;26.50;;;3.00;99.90;;;;;;4999604;28;88224;-33
2022/12/03 03:44:26;;;;;;;35.25;22.48;;;3.00;99.90;;;;;;4999892;28;87613;-32
2022/12/03 03:46:51;;;;;;;33.38;25.20;;;3.00;99.90;;;;;;5000190;28;88513;-32
2022/12/03 03:49:17;;;;;;;33.47;23.50;;;3.00;99.90;;;;;;4999466;28;90215;-33
2022/12/03 03:51:43;;;;;;;31.13;21.05;;;3.00;99.90;;;;;;4999407;28;89368;-34
2022/12/03 03:54:08;;;;;;;39.78;26.17;;;3.00;99.90;;;;;;4999383;28;87743;-33
2022/12/03 03:56:34;;;;;;;43.08;27.08;;;3.00;99.90;;;;;;4999778;28;87612;-33
2022/12/03 03:59:01;;;;;;;37.17;23.58;;;3.00;99.90;;;;;;5000007;28;90415;-33
2022/12/03 04:01:27;;;;;;;33.75;22.27;;;3.00;99.90;;;;;;4999436;28;89723;-32
2022/12/03 04:03:53;;;;;;;41.72;23.65;;;3.00;99.90;;;;;;5000126;28;90144;-34
2022/12/03 04:06:19;;;;;;;35.20;24.45;;;2.90;99.90;;;;;;4999085;28;88131;-34
2022/12/03 04:08:45;;;;;;;38.08;24.92;;;3.00;99.90;;;;;;4999113;28;88319;-33
2022/12/03 04:13:55;;;;;;;34.08;22.50;;;2.90;99.90;;;;;;4998928;28;88403;-33
2022/12/03 04:16:20;;;;;;;35.50;23.85;;;3.00;99.90;;;;;;4999303;28;87665;-32
2022/12/03 04:18:46;;;;;;;38.35;26.58;;;2.90;99.90;;;;;;4999072;28;90349;-32
2022/12/03 04:24:08;;;;;;;39.65;25.63;;;3.00;99.90;;;;;;4999726;28;88919;-32
2022/12/03 04:29:19;;;;;;;39.83;24.90;;;3.00;99.90;;;;;;4999397;28;89953;-31
2022/12/03 04:37:13;;;;;;;35.97;23.40;;;2.80;99.90;;;;;;4999225;28;87698;-33
2022/12/03 04:39:39;;;;;;;32.63;25.45;;;2.80;99.90;;;;;;4998524;28;90330;-34
2022/12/03 04:42:05;;;;;;;37.53;25.02;;;2.80;99.90;;;;;;4999286;28;90456;-31
2022/12/03 04:44:37;;;;;;;36.28;26.08;;;2.80;99.90;;;;;;4999520;28;89615;-33
2022/12/03 04:47:04;;;;;;;35.47;25.02;;;2.80;99.90;;;;;;5001403;28;89812;-34
2022/12/03 04:49:31;;;;;;;28.83;19.83;;;2.70;99.90;;;;;;5001891;28;90860;-32
2022/12/03 04:51:57;;;;;;;35.60;23.20;;;2.80;99.90;;;;;;5002005;28;89587;-35
2022/12/03 04:54:22;;;;;;;29.08;18.40;;;2.80;99.90;;;;;;5003151;28;90169;-32
2022/12/03 04:56:48;;;;;;;31.75;22.52;;;2.80;99.90;;;;;;5002554;28;89349;-30
2022/12/03 04:59:14;;;;;;;39.65;25.40;;;2.90;99.90;;;;;;5003251;28;90460;-34
2022/12/03 05:01:40;;;;;;;35.38;25.27;;;2.90;99.90;;;;;;5001774;28;90262;-32
2022/12/03 05:04:06;;;;;;;39.70;25.65;;;2.90;99.90;;;;;;5001926;28;88578;-31
2022/12/03 05:06:31;;;;;;;32.97;20.75;;;2.80;99.90;;;;;;5002262;28;88993;-31
2022/12/03 05:08:57;;;;;;;53.85;25.40;;;2.80;99.90;;;;;;5001916;28;90172;-36
2022/12/03 05:11:22;;;;;;;36.33;20.63;;;2.90;99.90;;;;;;5001751;28;88968;-35
2022/12/03 05:13:50;;;;;;;33.45;24.48;;;2.80;99.90;;;;;;5002411;28;88769;-31
2022/12/03 05:16:15;;;;;;;34.20;25.67;;;2.80;99.90;;;;;;5001985;28;89315;-32
2022/12/03 05:18:41;;;;;;;37.45;24.42;;;2.80;99.90;;;;;;5001975;28;91407;-34
2022/12/03 05:21:06;;;;;;;39.20;23.98;;;2.80;99.90;;;;;;4998981;28;89557;-34
2022/12/03 05:23:32;;;;;;;34.65;22.02;;;2.80;99.90;;;;;;4989778;28;88305;-31
2022/12/03 05:25:57;;;;;;;39.85;27.45;;;2.90;99.90;;;;;;5002005;28;89725;-32
2022/12/03 05:28:23;;;;;;;39.17;25.60;;;2.90;99.90;;;;;;5001454;28;91489;-36
2022/12/03 05:30:50;;;;;;;40.53;25.15;;;2.80;99.90;;;;;;5002428;28;89608;-31
2022/12/03 05:33:15;;;;;;;35.13;24.15;;;2.90;99.90;;;;;;5001678;28;88472;-33
2022/12/03 05:35:41;;;;;;;38.10;25.98;;;2.80;99.90;;;;;;5001703;28;91018;-32
2022/12/03 05:38:07;;;;;;;27.70;21.35;;;2.80;99.90;;;;;;5000970;28;90259;-33
2022/12/03 05:40:32;;;;;;;40.03;24.92;;;2.80;99.90;;;;;;5001353;28;88477;-34
2022/12/03 05:43:00;;;;;;;42.55;25.27;;;2.80;99.90;;;;;;5002300;28;87955;-33
2022/12/03 05:45:31;;;;;;;39.77;23.57;;;2.80;99.90;;;;;;5001166;28;88233;-32
2022/12/03 05:47:58;;;;;;;36.03;23.35;;;2.70;99.90;;;;;;5001932;28;90259;-32
2022/12/03 05:50:26;;;;;;;26.30;19.60;;;2.70;99.90;;;;;;5001041;28;90128;-34
2022/12/03 05:52:52;;;;;;;;;;;2.70;99.90;;;;;;5001884;28;88349;-32
2022/12/03 05:55:18;;;;;;;28.50;18.73;;;2.70;99.90;;;;;;5004563;28;88378;-33
2022/12/03 05:57:44;;;;;;;28.95;20.38;;;2.80;99.90;;;;;;5000270;28;90290;-32
2022/12/03 06:00:19;;;;;;;42.88;28.02;;;2.80;99.90;;;;;;5000778;28;89283;-33
2022/12/03 06:02:44;;;;;;;33.15;22.25;;;2.70;99.90;;;;;;5001330;28;88308;-32
2022/12/03 06:05:12;;;;;;;33.35;22.88;;;2.80;99.90;;;;;;5000949;28;89556;-35
2022/12/03 06:07:38;;;;;;;35.95;23.05;;;2.80;99.90;;;;;;5001586;28;90432;-34
2022/12/03 06:10:05;;;;;;;35.47;23.80;;;2.70;99.90;;;;;;5001241;28;92025;-32
2022/12/03 06:12:31;;;;;;;36.60;24.98;;;2.70;99.90;;;;;;4999786;28;87492;-31
2022/12/03 06:14:57;;;;;;;33.03;19.83;;;2.70;99.90;;;;;;5001548;28;87910;-32
2022/12/03 06:17:22;;;;;;;35.75;23.85;;;2.70;99.90;;;;;;5000972;28;90205;-34
2022/12/03 06:19:48;;;;;;;34.78;23.60;;;2.70;99.90;;;;;;5000660;28;89786;-32
2022/12/03 06:22:13;;;;;;;33.00;20.98;;;2.70;99.90;;;;;;5001217;28;90298;-32
2022/12/03 06:24:39;;;;;;;32.92;22.35;;;2.70;99.90;;;;;;5000628;28;88768;-32
2022/12/03 06:27:05;;;;;;;38.80;27.38;;;2.70;99.90;;;;;;5001180;28;90130;-30
2022/12/03 06:29:30;;;;;;;35.92;26.45;;;2.70;99.90;;;;;;5000820;28;89479;-33
2022/12/03 06:31:56;;;;;;;40.75;22.27;;;2.70;99.90;;;;;;4984185;28;89932;-33
2022/12/03 06:34:21;;;;;;;42.03;27.42;;;2.70;99.90;;;;;;5000516;28;88485;-34
2022/12/03 06:36:49;;;;;;;46.22;29.73;;;2.60;99.90;;;;;;4982666;28;90665;-33
2022/12/03 06:39:15;;;;;;;37.25;24.17;;;2.60;99.90;;;;;;5000891;28;89778;-33
2022/12/03 06:41:40;;;;;;;38.58;25.48;;;2.70;99.90;;;;;;5000775;28;88447;-31
2022/12/03 06:44:06;;;;;;;41.38;27.05;;;2.60;99.90;;;;;;5001088;28;88829;-33
2022/12/03 06:46:32;;;;;;;40.95;25.98;;;2.60;99.90;;;;;;5000467;28;90985;-32
2022/12/03 06:48:57;;;;;;;38.78;26.40;;;2.60;99.90;;;;;;4999979;28;88745;-33
2022/12/03 06:51:23;;;;;;;43.55;28.90;;;2.60;99.90;;;;;;5001071;28;87916;-30
2022/12/03 06:53:48;;;;;;;51.85;28.02;;;2.60;99.90;;;;;;5000474;28;90103;-31
2022/12/03 06:56:14;;;;;;;48.97;32.80;;;2.50;99.90;;;;;;5001350;28;90246;-33
2022/12/03 06:58:39;;;;;;;53.67;31.58;;;2.60;99.90;;;;;;4999666;28;89699;-31
2022/12/03 07:01:05;;;;;;;43.95;30.02;;;2.50;99.90;;;;;;5000926;28;88597;-32
2022/12/03 07:03:31;;;;;;;45.70;28.50;;;2.50;99.90;;;;;;5000014;28;88781;-34
2022/12/03 07:05:56;;;;;;;45.72;29.13;;;2.50;99.90;;;;;;5000031;28;90080;-32
2022/12/03 07:08:22;;;;;;;55.95;37.60;;;2.50;99.90;;;;;;5000624;28;89788;-31
2022/12/03 07:10:47;;;;;;;53.80;35.33;;;2.60;99.90;;;;;;4999129;28;87624;-30
2022/12/03 07:13:13;;;;;;;53.47;33.22;;;2.50;99.90;;;;;;5000394;28;87668;-31
2022/12/03 07:15:38;;;;;;;44.70;30.58;;;2.50;99.90;;;;;;4999472;28;90279;-32
2022/12/03 07:18:04;;;;;;;47.10;32.60;;;2.50;99.90;;;;;;4999459;28;89112;-30
2022/12/03 07:20:29;;;;;;;58.65;35.30;;;2.50;99.90;;;;;;5009721;28;88145;-32
2022/12/03 07:22:55;;;;;;;50.35;33.28;;;2.50;99.90;;;;;;5008946;28;87579;-31
2022/12/03 07:25:21;;;;;;;48.15;30.10;;;2.40;99.90;;;;;;5001538;28;91935;-33
2022/12/03 07:27:46;;;;;;;54.10;34.42;;;2.50;99.90;;;;;;5016104;28;89966;-31
2022/12/03 07:30:14;;;;;;;44.60;29.67;;;2.40;99.90;;;;;;5014279;28;87994;-34
2022/12/03 07:32:40;;;;;;;51.10;29.67;;;2.40;99.90;;;;;;5016884;28;89341;-30
2022/12/03 07:35:06;;;;;;;54.15;37.33;;;2.30;99.90;;;;;;5015643;28;90223;-33
2022/12/03 07:37:32;;;;;;;43.13;31.63;;;2.30;99.90;;;;;;5014799;28;89694;-32
2022/12/03 07:39:58;;;;;;;53.75;35.55;;;2.30;99.90;;;;;;5016709;28;89318;-32
2022/12/03 07:42:24;;;;;;;53.65;33.72;;;2.30;99.90;;;;;;5013064;28;87798;-31
2022/12/03 07:44:50;;;;;;;53.65;33.60;;;2.30;99.90;;;;;;5017115;28;90331;-31
2022/12/03 07:47:16;;;;;;;38.13;26.90;;;2.30;99.90;;;;;;5013812;28;89748;-32
2022/12/03 07:49:41;;;;;;;51.15;32.92;;;2.30;99.90;;;;;;5017051;28;89064;-31
2022/12/03 07:52:07;;;;;;;53.35;31.20;;;2.20;99.90;;;;;;5015389;28;88948;-31
2022/12/03 07:54:33;;;;;;;54.65;31.33;;;2.20;99.90;;;;;;5015327;28;90205;-32
2022/12/03 07:56:58;;;;;;;54.85;32.28;;;2.30;99.90;;;;;;5017057;28;89789;-34
2022/12/03 07:59:24;;;;;;;51.58;33.22;;;2.10;99.90;;;;;;5013167;28;88426;-33
2022/12/03 08:01:49;;;;;;;54.05;30.27;;;2.20;99.90;;;;;;5009591;28;88982;-31
2022/12/03 08:04:17;;;;;;;55.22;32.85;;;2.10;99.90;;;;;;5012091;28;90729;-30
2022/12/03 08:06:44;;;;;;;52.13;34.15;;;2.10;99.90;;;;;;5003988;28;89297;-32
2022/12/03 08:09:09;;;;;;;54.13;29.65;;;2.10;99.90;;;;;;4997603;28;89740;-31
2022/12/03 08:11:35;;;;;;;52.03;30.45;;;2.20;99.90;;;;;;4996898;28;88292;-31
2022/12/03 08:14:06;;;;;;;47.42;29.63;;;2.20;99.90;;;;;;4993791;28;89744;-32
2022/12/03 08:16:35;;;;;;;53.08;32.25;;;2.10;99.90;;;;;;4996712;28;90114;-31
2022/12/03 08:19:01;;;;;;;44.85;28.08;;;2.00;99.90;;;;;;4996971;28;89950;-32
2022/12/03 08:21:33;;;;;;;44.70;31.63;;;2.00;99.90;;;;;;4998246;28;88956;-31
2022/12/03 08:24:14;;;;;;;46.65;28.83;;;2.00;99.90;;;;;;5000310;28;90958;-33
2022/12/03 08:26:42;;;;;;;48.60;30.42;;;2.00;99.90;;;;;;4999839;28;89310;-33
2022/12/03 08:29:12;;;;;;;52.85;32.03;;;2.00;99.90;;;;;;4999933;28;88708;-33
2022/12/03 08:31:38;;;;;;;46.50;31.60;;;2.00;99.90;;;;;;4999754;28;88325;-35
2022/12/03 08:34:17;;;;;;;41.38;25.90;;;2.00;99.90;;;;;;5000087;28;90287;-32
2022/12/03 08:36:44;;;;;;;42.45;27.85;;;2.00;99.90;;;;;;4999768;28;89755;-34
2022/12/03 08:39:18;;;;;;;48.45;29.85;;;2.00;99.90;;;;;;4999892;28;88687;-33
2022/12/03 08:44:36;;;;;;;48.13;30.13;;;2.00;99.90;;;;;;4995262;28;90117;-31
2022/12/03 08:47:18;;;;;;;35.50;22.77;;;2.00;99.90;;;;;;5019549;28;90130;-31
2022/12/03 08:50:25;;;;;;;34.50;20.92;;;2.00;99.90;;;;;;5019031;28;87597;-31
2022/12/03 08:52:52;;;;;;;47.65;30.27;;;2.10;99.90;;;;;;5019471;28;88781;-33
2022/12/03 08:55:35;;;;;;;46.13;30.30;;;2.00;99.90;;;;;;5019883;28;90458;-32
2022/12/03 08:58:19;;;;;;;46.08;31.88;;;2.00;99.90;;;;;;4994126;28;89220;-32
2022/12/03 09:00:45;;;;;;;46.85;29.38;;;2.00;99.90;;;;;;5017746;28;88659;-30
2022/12/03 09:03:15;;;;;;;42.25;26.77;;;2.00;99.90;;;;;;5018546;28;89605;-30
2022/12/03 09:05:41;;;;;;;49.13;29.83;;;2.00;99.90;;;;;;5016614;28;90258;-33
2022/12/03 09:08:06;;;;;;;46.33;28.67;;;2.00;99.90;;;;;;5017655;28;90224;-32
2022/12/03 09:10:32;;;;;;;40.72;28.92;;;2.00;99.90;;;;;;5018014;28;91234;-31
2022/12/03 09:12:57;;;;;;;54.70;31.60;;;2.00;99.90;;;;;;5017438;28;88879;-32
2022/12/03 09:15:23;;;;;;;49.97;31.20;;;1.90;99.90;;;;;;5018889;28;90415;-31
2022/12/03 09:17:49;;;;;;;51.72;32.55;;;1.90;99.90;;;;;;5016727;28;89775;-31
2022/12/03 09:20:14;;;;;;;52.05;26.92;;;1.90;99.90;;;;;;5055561;22;89574;-34
2022/12/03 09:22:40;;;;;;;44.03;31.63;;;1.90;99.90;;;;;;5016430;28;88551;-32
2022/12/03 09:25:06;;;;;;;43.85;27.13;;;1.90;99.90;;;;;;5002403;28;88472;-33
2022/12/03 09:27:31;;;;;;;47.13;30.02;;;1.90;99.90;;;;;;4998998;28;91682;-32
2022/12/03 09:29:57;;;;;;;47.83;30.90;;;2.00;99.90;;;;;;4997858;28;90018;-31
2022/12/03 09:32:23;;;;;;;45.30;31.00;;;1.90;99.90;;;;;;4997843;28;90058;-32
2022/12/03 09:34:49;;;;;;;55.83;33.28;;;2.00;99.90;;;;;;4998025;28;90118;-32
2022/12/03 09:37:15;;;;;;;41.38;28.98;;;2.00;99.90;;;;;;4999329;28;90156;-31
2022/12/03 09:39:40;;;;;;;47.47;31.15;;;2.10;99.90;;;;;;4998116;28;89500;-31
2022/12/03 09:42:06;;;;;;;38.38;26.17;;;2.10;99.90;;;;;;4998335;28;88534;-32
2022/12/03 09:44:34;;;;;;;40.47;28.15;;;2.10;99.90;;;;;;4996881;28;89005;-33
2022/12/03 09:47:01;;;;;;;46.47;28.17;;;2.10;99.90;;;;;;4988590;28;89748;-31
2022/12/03 09:49:27;;;;;;;51.07;33.03;;;2.00;99.90;;;;;;5005954;28;88566;-32
2022/12/03 09:51:56;;;;;;;50.45;34.55;;;2.00;99.90;;;;;;5018168;28;88546;-31
2022/12/03 09:54:25;;;;;;;47.22;31.90;;;2.10;99.90;;;;;;5017080;28;90426;-34
2022/12/03 09:56:52;;;;;;;39.63;27.52;;;2.10;99.90;;;;;;5014295;28;90778;-33
2022/12/03 09:59:18;;;;;;;47.53;28.58;;;2.20;99.90;;;;;;5017556;28;92467;-32
2022/12/03 10:01:43;;;;;;;39.53;24.27;;;2.10;99.90;;;;;;5017081;28;89113;-35
2022/12/03 10:04:10;;;;;;;40.28;29.05;;;2.10;99.90;;;;;;5017978;28;90108;-30
2022/12/03 10:06:36;;;;;;;36.47;24.08;;;2.10;99.90;;;;;;5016222;28;89572;-31
2022/12/03 10:09:02;;;;;;;41.50;28.17;;;2.20;99.90;;;;;;5017614;28;89817;-31
2022/12/03 10:11:29;;;;;;;38.72;24.50;;;2.20;99.90;;;;;;5017301;28;89099;-33
2022/12/03 10:13:57;;;;;;;43.17;27.73;;;2.10;99.90;;;;;;5017405;28;90292;-33
2022/12/03 10:16:23;;;;;;;50.30;27.98;;;2.20;99.90;;;;;;5004881;28;89544;-32
2022/12/03 10:18:53;;;;;;;41.45;21.45;;;2.20;99.90;;;;;;5015338;28;89864;-33
2022/12/03 10:21:24;;;;;;;49.15;28.88;;;2.20;99.90;;;;;;5016582;28;89964;-34
2022/12/03 10:24:12;;;;;;;43.58;30.08;;;2.20;99.90;;;;;;5010993;28;89670;-33
2022/12/03 10:26:40;;;;;;;48.28;29.92;;;2.20;99.90;;;;;;4997429;28;89543;-30
2022/12/03 10:29:12;;;;;;;46.28;31.02;;;2.20;99.90;;;;;;4997411;28;91940;-31
2022/12/03 10:31:38;;;;;;;45.97;28.42;;;2.20;99.90;;;;;;4997367;28;89968;-31
2022/12/03 10:34:03;;;;;;;51.65;34.72;;;2.20;99.90;;;;;;4997314;28;89911;-33
2022/12/03 10:36:29;;;;;;;46.50;31.50;;;2.20;99.90;;;;;;4996820;28;89685;-32
2022/12/03 10:39:15;;;;;;;43.53;26.77;;;2.20;99.90;;;;;;4997436;28;89990;-34
2022/12/03 10:41:42;;;;;;;45.42;26.52;;;2.20;99.90;;;;;;4997128;28;87809;-33
2022/12/03 10:44:14;;;;;;;52.88;30.25;;;2.20;99.90;;;;;;4996180;28;89821;-31
2022/12/03 10:46:39;;;;;;;47.88;29.70;;;2.20;99.90;;;;;;4995552;28;90561;-30
2022/12/03 10:49:16;;;;;;;54.90;32.22;;;2.30;99.90;;;;;;4997302;28;90110;-35
2022/12/03 10:51:42;;;;;;;46.50;30.52;;;2.20;99.90;;;;;;4997365;28;89193;-30
2022/12/03 10:54:27;;;;;;;45.40;31.25;;;2.20;99.90;;;;;;4996201;28;90764;-33
2022/12/03 10:56:53;;;;;;;38.05;27.15;;;2.10;99.90;;;;;;4996892;28;88685;-34
2022/12/03 10:59:21;;;;;;;51.95;28.40;;;2.20;99.90;;;;;;4996921;28;90203;-33
2022/12/03 11:01:47;;;;;;;;;;;2.30;99.90;;;;;;4997041;28;89044;-32
2022/12/03 11:04:22;;;;;;;48.60;26.75;;;2.20;99.90;;;;;;4999809;28;89766;-31
2022/12/03 11:06:49;;;;;;;49.63;33.22;;;2.20;99.90;;;;;;4995975;28;89822;-30
2022/12/03 11:09:20;;;;;;;47.28;30.10;;;2.20;99.90;;;;;;4978172;28;89585;-31
2022/12/03 11:11:47;;;;;;;52.92;33.15;;;2.20;99.90;;;;;;4996307;28;90395;-33
2022/12/03 11:14:12;;;;;;;45.45;32.67;;;2.20;99.90;;;;;;4996410;28;90241;-33
2022/12/03 11:16:38;;;;;;;42.28;33.45;;;2.20;99.90;;;;;;4996547;28;89805;-33
2022/12/03 11:19:16;;;;;;;51.83;34.00;;;2.20;99.90;;;;;;4996322;28;89702;-33
2022/12/03 11:22:03;;;;;;;49.35;34.42;;;2.30;99.90;;;;;;4995990;28;89050;-32
2022/12/03 11:24:30;;;;;;;43.53;29.33;;;2.30;99.90;;;;;;4995988;28;89851;-33
2022/12/03 11:26:56;;;;;;;56.55;34.55;;;2.30;99.90;;;;;;4997719;28;89863;-30
2022/12/03 11:29:43;;;;;;;53.97;33.90;;;2.30;99.90;;;;;;4996505;28;90668;-31
2022/12/03 11:32:09;;;;;;;35.72;24.45;;;2.30;99.90;;;;;;4996354;28;88904;-30
2022/12/03 11:34:34;;;;;;;49.67;33.03;;;2.40;99.90;;;;;;4995884;28;90086;-33
2022/12/03 11:37:09;;;;;;;52.88;33.20;;;2.30;99.90;;;;;;4995438;28;90800;-32
2022/12/03 11:39:44;;;;;;;55.00;32.42;;;2.40;99.90;;;;;;4995776;28;91230;-31
2022/12/03 11:42:24;;;;;;;48.35;31.55;;;2.40;99.90;;;;;;4996753;28;90013;-32
2022/12/03 11:45:04;;;;;;;45.25;28.88;;;2.40;99.90;;;;;;4996298;28;90327;-31
2022/12/03 11:47:59;;;;;;;50.75;33.70;;;2.40;99.90;;;;;;4997293;28;89631;-31
2022/12/03 11:50:38;;;;;;;44.15;28.92;;;2.40;99.90;;;;;;4995670;28;89578;-32
2022/12/03 11:53:20;;;;;;;43.95;32.28;;;2.50;99.90;;;;;;4995756;28;89069;-33
2022/12/03 11:56:05;;;;;;;43.47;30.60;;;2.40;99.90;;;;;;4994879;28;90086;-34
2022/12/03 11:58:33;;;;;;;44.78;26.80;;;2.40;99.90;;;;;;4994559;28;89134;-31
2022/12/03 12:01:00;;;;;;;34.67;22.90;;;2.40;99.90;;;;;;4990310;28;89368;-33
2022/12/03 12:03:29;;;;;;;52.93;26.73;;;2.40;99.90;;;;;;4996893;28;88750;-32
2022/12/03 12:06:04;;;;;;;46.25;31.42;;;2.40;99.90;;;;;;4997009;28;90779;-32
2022/12/03 12:08:30;;;;;;;50.92;31.80;;;2.40;99.90;;;;;;4996728;28;88902;-31
2022/12/03 12:10:56;;;;;;;50.03;33.92;;;2.30;99.90;;;;;;5003542;28;89724;-32
2022/12/03 12:13:31;;;;;;;45.15;30.23;;;2.30;99.90;;;;;;4997220;28;87885;-31
2022/12/03 12:15:58;;;;;;;45.15;29.55;;;2.30;99.90;;;;;;4984010;28;90060;-30
2022/12/03 12:18:37;;;;;;;45.40;27.48;;;2.30;99.90;;;;;;4977987;28;89716;-35
2022/12/03 12:21:40;;;;;;;45.33;28.88;;;2.20;99.90;;;;;;4984989;28;89328;-34
2022/12/03 12:24:45;;;;;;;54.80;32.20;;;2.10;99.90;;;;;;5000197;28;88925;-31
2022/12/03 12:27:44;;;;;;;53.30;30.63;;;2.00;99.90;;;;;;4998928;28;90316;-33
2022/12/03 12:30:15;;;;;;;50.10;30.63;;;2.00;99.90;;;;;;4998213;28;91559;-33
2022/12/03 12:32:50;;;;;;;50.72;30.85;;;2.00;99.90;;;;;;4998489;28;90777;-32
2022/12/03 12:35:20;;;;;;;55.58;30.08;;;2.00;99.90;;;;;;5001214;28;88431;-31
2022/12/03 12:37:55;;;;;;;51.38;33.25;;;2.00;99.90;;;;;;4999137;28;89830;-31
2022/12/03 12:40:24;;;;;;;50.92;32.55;;;1.90;99.90;;;;;;5003790;28;89313;-32
2022/12/03 12:42:52;;;;;;;39.45;24.15;;;2.00;99.90;;;;;;4996050;28;89324;-31
2022/12/03 12:45:23;;;;;;;48.88;35.20;;;2.00;99.90;;;;;;4995656;28;90043;-31
2022/12/03 12:48:25;;;;;;;59.25;37.05;;;2.10;99.90;;;;;;4995970;28;90357;-32
2022/12/03 12:51:13;;;;;;;54.10;33.63;;;2.10;99.90;;;;;;4990570;28;90150;-33
2022/12/03 12:53:41;;;;;;;62.23;32.77;;;2.00;99.90;;;;;;4994719;28;89565;-32
2022/12/03 12:56:16;;;;;;;46.22;32.17;;;2.00;99.90;;;;;;4995325;28;89099;-34
2022/12/03 12:58:41;;;;;;;54.15;32.78;;;2.00;99.90;;;;;;4976917;28;90408;-31
2022/12/03 13:01:19;;;;;;;49.88;33.55;;;2.00;99.90;;;;;;4994743;28;89514;-31
2022/12/03 13:03:49;;;;;;;51.40;31.92;;;2.00;99.90;;;;;;4994930;28;89115;-34